createdAt,value
2022-08-30T00:01:07.815Z,10.58
2022-08-30T00:03:49.187Z,10.51
2022-08-30T00:06:22.174Z,10.48
2022-08-30T00:08:53.135Z,10.44
2022-08-30T00:11:29.600Z,10.42
2022-08-30T00:14:00.145Z,10.37
2022-08-30T00:16:30.647Z,10.36
2022-08-30T00:19:01.784Z,10.29
2022-08-30T00:21:32.228Z,10.22
2022-08-30T00:24:02.594Z,10.16
2022-08-30T00:26:32.633Z,10.03
2022-08-30T00:29:05.904Z,10.03
2022-08-30T00:31:36.394Z,10.06
2022-08-30T00:34:07.057Z,10.07
2022-08-30T00:36:37.459Z,10.01
2022-08-30T00:39:07.805Z,10.06
2022-08-30T00:41:38.698Z,10.06
2022-08-30T00:44:10.069Z,10.01
2022-08-30T00:46:40.734Z,10.01
2022-08-30T00:49:14.276Z,10.00
2022-08-30T00:51:44.802Z,9.96
2022-08-30T00:54:15.624Z,9.90
2022-08-30T00:56:47.673Z,9.80
2022-08-30T00:59:19.025Z,9.83
2022-08-30T01:01:50.155Z,9.73
2022-08-30T01:04:22.721Z,9.72
2022-08-30T01:06:54.705Z,9.79
2022-08-30T01:09:26.090Z,9.80
2022-08-30T01:11:57.257Z,9.80
2022-08-30T01:14:28.352Z,9.83
2022-08-30T01:16:59.895Z,9.80
2022-08-30T01:19:48.739Z,9.76
2022-08-30T01:22:32.884Z,9.69
2022-08-30T01:25:04.920Z,9.60
2022-08-30T01:27:46.409Z,9.50
2022-08-30T01:30:16.798Z,9.49
2022-08-30T01:32:49.467Z,9.50
2022-08-30T01:35:24.226Z,9.50
2022-08-30T01:37:54.675Z,9.60
2022-08-30T01:40:25.129Z,9.55
2022-08-30T01:42:56.055Z,9.55
2022-08-30T01:45:26.461Z,9.56
2022-08-30T01:47:56.907Z,9.68
2022-08-30T01:50:30.330Z,9.73
2022-08-30T01:53:00.737Z,9.72
2022-08-30T01:55:31.185Z,9.72
2022-08-30T01:58:02.516Z,9.70
2022-08-30T02:00:33.646Z,9.65
2022-08-30T02:03:04.508Z,9.66
2022-08-30T02:05:35.112Z,9.66
2022-08-30T02:08:06.227Z,9.69
2022-08-30T02:10:36.872Z,9.65
2022-08-30T02:13:07.240Z,9.49
2022-08-30T02:15:41.612Z,9.31
2022-08-30T02:18:12.439Z,9.22
2022-08-30T02:20:43.056Z,9.19
2022-08-30T02:23:13.634Z,9.22
2022-08-30T02:25:44.195Z,9.18
2022-08-30T02:28:18.511Z,9.29
2022-08-30T02:30:49.977Z,9.39
2022-08-30T02:33:21.077Z,9.41
2022-08-30T02:35:51.552Z,9.43
2022-08-30T02:38:22.108Z,9.49
2022-08-30T02:40:53.104Z,9.50
2022-08-30T02:43:23.636Z,9.50
2022-08-30T02:45:54.448Z,9.48
2022-08-30T02:48:25.596Z,9.45
2022-08-30T02:50:56.075Z,9.43
2022-08-30T02:53:26.564Z,9.41
2022-08-30T02:55:57.929Z,9.39
2022-08-30T02:58:29.139Z,9.36
2022-08-30T03:01:01.357Z,9.34
2022-08-30T03:03:32.373Z,9.31
2022-08-30T03:06:04.714Z,9.25
2022-08-30T03:08:35.973Z,9.24
2022-08-30T03:11:07.038Z,9.03
2022-08-30T03:13:38.099Z,9.05
2022-08-30T03:16:08.594Z,8.91
2022-08-30T03:18:39.057Z,8.88
2022-08-30T03:21:18.124Z,8.98
2022-08-30T03:23:48.521Z,8.92
2022-08-30T03:26:18.983Z,9.05
2022-08-30T03:28:49.605Z,9.10
2022-08-30T03:31:20.153Z,9.07
2022-08-30T03:33:50.614Z,9.01
2022-08-30T03:36:21.504Z,8.96
2022-08-30T03:38:51.995Z,9.00
2022-08-30T03:41:22.348Z,8.97
2022-08-30T03:43:53.683Z,8.88
2022-08-30T03:46:33.496Z,8.85
2022-08-30T03:49:06.692Z,8.85
2022-08-30T03:51:37.148Z,8.80
2022-08-30T03:54:07.778Z,8.88
2022-08-30T03:56:38.737Z,8.85
2022-08-30T03:59:09.424Z,8.94
2022-08-30T04:01:39.744Z,8.91
2022-08-30T04:04:11.379Z,8.88
2022-08-30T04:06:42.038Z,8.92
2022-08-30T04:09:12.505Z,8.92
2022-08-30T04:11:43.062Z,8.84
2022-08-30T04:14:13.556Z,8.91
2022-08-30T04:16:44.478Z,8.91
2022-08-30T04:19:15.088Z,8.84
2022-08-30T04:21:46.132Z,8.78
2022-08-30T04:24:16.613Z,8.66
2022-08-30T04:26:47.001Z,8.59
2022-08-30T04:29:20.570Z,8.64
2022-08-30T04:31:50.993Z,8.70
2022-08-30T04:34:21.562Z,8.81
2022-08-30T04:36:51.908Z,8.85
2022-08-30T04:39:22.534Z,8.85
2022-08-30T04:41:52.903Z,8.78
2022-08-30T04:44:23.478Z,8.56
2022-08-30T04:46:53.886Z,8.40
2022-08-30T04:49:24.371Z,8.32
2022-08-30T04:51:54.841Z,8.35
2022-08-30T04:54:25.216Z,8.47
2022-08-30T04:56:55.898Z,8.52
2022-08-30T04:59:26.436Z,8.64
2022-08-30T05:01:57.103Z,8.68
2022-08-30T05:04:28.053Z,8.67
2022-08-30T05:06:58.718Z,8.52
2022-08-30T05:09:29.184Z,8.35
2022-08-30T05:11:59.570Z,8.30
2022-08-30T05:14:30.091Z,8.19
2022-08-30T05:17:00.483Z,8.18
2022-08-30T05:19:35.114Z,8.25
2022-08-30T05:22:06.084Z,8.39
2022-08-30T05:24:37.450Z,8.45
2022-08-30T05:27:07.930Z,8.53
2022-08-30T05:29:38.233Z,8.61
2022-08-30T05:32:09.912Z,8.59
2022-08-30T05:34:40.621Z,8.47
2022-08-30T05:37:11.123Z,8.49
2022-08-30T05:39:50.811Z,8.45
2022-08-30T05:42:22.419Z,8.47
2022-08-30T05:44:56.841Z,8.49
2022-08-30T05:47:27.551Z,8.47
2022-08-30T05:49:58.082Z,8.50
2022-08-30T05:52:28.497Z,8.50
2022-08-30T05:55:05.437Z,8.52
2022-08-30T05:57:36.382Z,8.52
2022-08-30T06:00:14.122Z,8.46
2022-08-30T06:02:44.921Z,8.47
2022-08-30T06:05:16.173Z,8.50
2022-08-30T06:07:46.797Z,8.52
2022-08-30T06:10:17.384Z,8.49
2022-08-30T06:12:47.867Z,8.53
2022-08-30T06:15:18.591Z,8.45
2022-08-30T06:17:50.467Z,8.43
2022-08-30T06:20:21.801Z,8.45
2022-08-30T06:22:52.314Z,8.40
2022-08-30T06:25:22.832Z,8.36
2022-08-30T06:27:56.046Z,8.36
2022-08-30T06:30:27.356Z,8.30
2022-08-30T06:32:57.639Z,8.29
2022-08-30T06:35:32.734Z,8.28
2022-08-30T06:38:05.962Z,8.30
2022-08-30T06:40:35.923Z,8.28
2022-08-30T06:43:06.462Z,8.21
2022-08-30T06:45:37.487Z,8.21
2022-08-30T06:48:08.018Z,8.18
2022-08-30T06:50:38.475Z,8.01
2022-08-30T06:53:09.004Z,7.94
2022-08-30T06:55:40.483Z,7.92
2022-08-30T06:58:11.072Z,7.99
2022-08-30T07:00:43.119Z,8.10
2022-08-30T07:03:13.568Z,8.16
2022-08-30T07:05:44.575Z,8.18
2022-08-30T07:08:15.032Z,8.18
2022-08-30T07:10:46.741Z,8.13
2022-08-30T07:13:17.658Z,8.15
2022-08-30T07:15:49.102Z,8.15
2022-08-30T07:18:38.268Z,8.10
2022-08-30T07:21:15.138Z,8.10
2022-08-30T07:23:50.248Z,8.08
2022-08-30T07:26:27.764Z,8.08
2022-08-30T07:28:59.657Z,8.08
2022-08-30T07:31:31.008Z,8.13
2022-08-30T07:34:01.348Z,8.10
2022-08-30T07:36:32.192Z,8.08
2022-08-30T07:39:02.132Z,7.85
2022-08-30T07:41:37.137Z,7.79
2022-08-30T07:44:09.514Z,7.85
2022-08-30T07:46:41.849Z,7.85
2022-08-30T07:49:13.741Z,7.84
2022-08-30T07:51:44.702Z,7.75
2022-08-30T07:54:15.214Z,7.71
2022-08-30T07:56:45.679Z,7.70
2022-08-30T07:59:16.410Z,7.68
2022-08-30T08:01:46.880Z,7.53
2022-08-30T08:04:17.099Z,7.55
2022-08-30T08:06:48.217Z,7.57
2022-08-30T08:09:19.430Z,7.51
2022-08-30T08:11:50.065Z,7.48
2022-08-30T08:14:22.750Z,7.55
2022-08-30T08:16:53.353Z,7.57
2022-08-30T08:19:23.888Z,7.53
2022-08-30T08:22:20.839Z,7.47
2022-08-30T08:24:51.838Z,7.38
2022-08-30T08:27:22.387Z,7.38
2022-08-30T08:29:52.948Z,7.42
2022-08-30T08:32:23.441Z,7.42
2022-08-30T08:34:53.858Z,7.26
2022-08-30T08:37:26.733Z,7.13
2022-08-30T08:39:58.349Z,7.09
2022-08-30T08:42:41.392Z,7.05
2022-08-30T08:45:28.320Z,7.09
2022-08-30T08:48:13.826Z,7.02
2022-08-30T08:51:04.050Z,6.99
2022-08-30T08:53:45.367Z,6.99
2022-08-30T08:56:20.096Z,7.05
2022-08-30T08:58:56.388Z,7.16
2022-08-30T09:01:30.345Z,7.14
2022-08-30T09:04:04.637Z,7.06
2022-08-30T09:06:45.245Z,7.02
2022-08-30T09:09:16.973Z,6.85
2022-08-30T09:11:49.530Z,6.88
2022-08-30T09:14:30.326Z,6.96
2022-08-30T09:17:06.004Z,7.00
2022-08-30T09:19:55.446Z,6.86
2022-08-30T09:22:39.151Z,6.86
2022-08-30T09:25:15.758Z,6.81
2022-08-30T09:27:48.859Z,6.86
2022-08-30T09:30:25.895Z,6.88
2022-08-30T09:33:00.886Z,6.89
2022-08-30T09:35:50.967Z,6.82
2022-08-30T09:38:37.163Z,6.88
2022-08-30T09:41:36.429Z,6.96
2022-08-30T09:44:20.615Z,7.05
2022-08-30T09:46:59.526Z,7.13
2022-08-30T09:49:37.180Z,7.16
2022-08-30T09:52:25.913Z,7.00
2022-08-30T09:55:11.926Z,6.92
2022-08-30T09:57:59.199Z,6.91
2022-08-30T10:00:33.773Z,6.89
2022-08-30T10:06:53.111Z,7.09
2022-08-30T10:09:40.597Z,7.22
2022-08-30T10:12:28.987Z,7.36
2022-08-30T10:15:20.222Z,7.46
2022-08-30T10:18:12.702Z,7.54
2022-08-30T10:21:19.358Z,7.64
2022-08-30T10:23:59.259Z,7.74
2022-08-30T10:26:40.471Z,7.84
2022-08-30T10:29:32.966Z,7.95
2022-08-30T10:32:23.425Z,8.10
2022-08-30T10:38:35.358Z,8.32
2022-08-30T10:41:35.924Z,8.54
2022-08-30T10:44:17.661Z,8.57
2022-08-30T10:47:09.058Z,8.61
2022-08-30T10:49:46.558Z,8.56
2022-08-30T10:52:33.327Z,8.56
2022-08-30T10:55:11.418Z,8.80
2022-08-30T11:00:43.041Z,8.98
2022-08-30T11:03:29.324Z,8.96
2022-08-30T11:06:21.917Z,9.01
2022-08-30T11:09:41.383Z,9.11
2022-08-30T11:12:31.127Z,9.08
2022-08-30T11:15:16.122Z,9.12
2022-08-30T11:17:55.737Z,9.27
2022-08-30T11:20:35.011Z,9.01
2022-08-30T11:23:26.846Z,8.88
2022-08-30T11:26:20.419Z,9.00
2022-08-30T11:28:51.098Z,9.04
2022-08-30T11:31:24.371Z,9.01
2022-08-30T11:33:56.716Z,9.01
2022-08-30T11:36:37.443Z,9.07
2022-08-30T11:39:12.436Z,9.28
2022-08-30T11:41:48.811Z,9.50
2022-08-30T11:44:19.369Z,9.32
2022-08-30T11:46:51.435Z,9.48
2022-08-30T11:49:23.465Z,9.42
2022-08-30T11:52:28.024Z,9.58
2022-08-30T11:55:33.134Z,9.76
2022-08-30T11:58:28.000Z,9.68
2022-08-30T12:01:40.881Z,9.56
2022-08-30T12:04:29.756Z,9.79
2022-08-30T12:07:06.181Z,9.87
2022-08-30T12:09:36.599Z,10.00
2022-08-30T12:12:32.120Z,10.03
2022-08-30T12:15:02.662Z,10.14
2022-08-30T12:18:15.555Z,10.33
2022-08-30T12:20:51.719Z,10.52
2022-08-30T12:23:34.693Z,10.65
2022-08-30T12:26:20.234Z,10.86
2022-08-30T12:28:52.658Z,10.99
2022-08-30T12:31:28.256Z,11.12
2022-08-30T12:34:02.363Z,11.29
2022-08-30T12:36:35.766Z,11.39
2022-08-30T12:39:17.918Z,11.40
2022-08-30T12:41:48.388Z,11.53
2022-08-30T12:44:28.162Z,11.63
2022-08-30T12:47:06.140Z,11.78
2022-08-30T12:49:39.289Z,11.90
2022-08-30T12:52:24.237Z,12.08
2022-08-30T12:54:57.068Z,12.26
2022-08-30T12:58:08.598Z,12.36
2022-08-30T13:00:41.371Z,12.56
2022-08-30T13:03:36.415Z,12.73
2022-08-30T13:06:09.294Z,12.90
2022-08-30T13:08:53.201Z,13.15
2022-08-30T13:11:23.962Z,13.37
2022-08-30T13:14:19.608Z,13.44
2022-08-30T13:16:50.610Z,13.58
2022-08-30T13:19:40.026Z,13.82
2022-08-30T13:22:30.213Z,13.95
2022-08-30T13:25:01.460Z,14.06
2022-08-30T13:27:32.584Z,14.30
2022-08-30T13:30:13.444Z,14.41
2022-08-30T13:32:45.803Z,14.68
2022-08-30T13:35:16.214Z,14.88
2022-08-30T13:37:51.371Z,14.98
2022-08-30T13:40:23.724Z,15.22
2022-08-30T13:42:58.631Z,15.32
2022-08-30T13:45:44.659Z,15.62
2022-08-30T13:48:17.591Z,15.96
2022-08-30T13:50:56.725Z,16.17
2022-08-30T13:56:17.883Z,16.54
2022-08-30T13:58:48.297Z,16.73
2022-08-30T14:01:18.990Z,17.08
2022-08-30T14:07:14.059Z,17.16
2022-08-30T14:09:31.008Z,17.41
2022-08-30T14:12:01.368Z,17.67
2022-08-30T14:14:42.541Z,17.82
2022-08-30T14:17:13.881Z,18.00
2022-08-30T14:19:44.250Z,18.02
2022-08-30T14:22:14.793Z,18.05
2022-08-30T14:24:45.251Z,17.95
2022-08-30T14:27:15.117Z,18.19
2022-08-30T14:29:48.488Z,18.31
2022-08-30T14:32:19.071Z,18.35
2022-08-30T14:34:49.762Z,18.64
2022-08-30T14:37:21.631Z,18.45
2022-08-30T14:39:52.393Z,18.66
2022-08-30T14:42:22.879Z,18.66
2022-08-30T14:44:56.744Z,18.80
2022-08-30T14:47:29.447Z,18.64
2022-08-30T14:50:02.356Z,18.97
2022-08-30T14:52:34.228Z,19.10
2022-08-30T14:55:08.945Z,19.36
2022-08-30T14:57:40.262Z,19.31
2022-08-30T15:00:14.658Z,19.39
2022-08-30T15:02:45.079Z,19.54
2022-08-30T15:05:15.561Z,19.82
2022-08-30T15:07:51.610Z,19.89
2022-08-30T15:10:41.890Z,20.00
2022-08-30T15:13:13.788Z,20.16
2022-08-30T15:15:45.355Z,20.29
2022-08-30T15:18:15.865Z,20.37
2022-08-30T15:20:51.035Z,20.68
2022-08-30T15:23:24.785Z,20.51
2022-08-30T15:25:56.010Z,20.41
2022-08-30T15:28:27.514Z,20.44
2022-08-30T15:30:58.391Z,20.56
2022-08-30T15:33:30.094Z,20.40
2022-08-30T15:36:04.453Z,20.61
2022-08-30T15:38:34.997Z,21.06
2022-08-30T15:41:09.736Z,20.99
2022-08-30T15:43:42.199Z,20.98
2022-08-30T15:46:33.805Z,20.88
2022-08-30T15:49:08.104Z,21.12
2022-08-30T15:51:41.606Z,21.24
2022-08-30T15:54:14.245Z,21.19
2022-08-30T15:56:47.460Z,21.21
2022-08-30T15:59:18.763Z,21.28
2022-08-30T16:01:49.673Z,21.34
2022-08-30T16:04:20.354Z,21.39
2022-08-30T16:06:51.264Z,21.38
2022-08-30T16:09:23.406Z,21.49
2022-08-30T16:11:53.945Z,21.66
2022-08-30T16:14:24.378Z,21.69
2022-08-30T16:16:58.833Z,21.79
2022-08-30T16:19:29.992Z,21.80
2022-08-30T16:22:01.258Z,22.14
2022-08-30T16:24:31.801Z,22.24
2022-08-30T16:27:02.348Z,22.27
2022-08-30T16:29:32.814Z,22.27
2022-08-30T16:32:04.295Z,22.14
2022-08-30T16:34:35.703Z,22.24
2022-08-30T16:37:06.429Z,22.67
2022-08-30T16:39:37.148Z,22.52
2022-08-30T16:42:09.091Z,22.73
2022-08-30T16:44:40.234Z,23.13
2022-08-30T16:47:13.495Z,23.58
2022-08-30T16:49:44.887Z,23.47
2022-08-30T16:52:15.398Z,23.03
2022-08-30T16:54:45.771Z,23.16
2022-08-30T16:57:17.859Z,23.17
2022-08-30T16:59:50.879Z,23.23
2022-08-30T17:02:23.156Z,22.76
2022-08-30T17:04:55.597Z,23.05
2022-08-30T17:07:26.118Z,23.77
2022-08-30T17:10:00.511Z,24.52
2022-08-30T17:12:31.235Z,23.80
2022-08-30T17:15:01.689Z,24.00
2022-08-30T17:17:35.997Z,24.35
2022-08-30T17:20:08.347Z,24.49
2022-08-30T17:22:39.373Z,25.09
2022-08-30T17:25:10.438Z,25.38
2022-08-30T17:27:42.402Z,25.26
2022-08-30T17:30:13.455Z,25.35
2022-08-30T17:32:44.874Z,25.71
2022-08-30T17:35:15.993Z,25.35
2022-08-30T17:37:47.418Z,25.82
2022-08-30T17:40:20.142Z,25.04
2022-08-30T17:42:50.844Z,26.37
2022-08-30T17:45:21.979Z,26.77
2022-08-30T17:47:52.638Z,27.37
2022-08-30T17:50:23.161Z,27.30
2022-08-30T17:52:54.134Z,27.46
2022-08-30T17:55:24.654Z,27.73
2022-08-30T17:57:55.139Z,27.94
2022-08-30T18:00:26.186Z,26.50
2022-08-30T18:02:57.446Z,26.44
2022-08-30T18:05:28.171Z,26.81
2022-08-30T18:07:58.603Z,25.28
2022-08-30T18:10:34.383Z,25.74
2022-08-30T18:13:05.516Z,25.52
2022-08-30T18:15:36.020Z,24.25
2022-08-30T18:18:06.544Z,23.77
2022-08-30T18:20:37.036Z,23.77
2022-08-30T18:23:08.217Z,26.13
2022-08-30T18:25:39.918Z,26.69
2022-08-30T18:28:12.547Z,24.77
2022-08-30T18:30:44.111Z,22.61
2022-08-30T18:33:14.902Z,22.85
2022-08-30T18:35:49.566Z,24.14
2022-08-30T18:38:23.814Z,23.94
2022-08-30T18:41:05.298Z,24.86
2022-08-30T18:43:38.019Z,23.31
2022-08-30T18:46:11.662Z,22.43
2022-08-30T18:48:43.245Z,22.81
2022-08-30T18:51:23.573Z,24.42
2022-08-30T18:53:56.630Z,23.34
2022-08-30T18:56:31.734Z,22.01
2022-08-30T18:59:04.020Z,21.28
2022-08-30T19:01:38.892Z,21.82
2022-08-30T19:04:10.832Z,21.41
2022-08-30T19:06:54.242Z,21.76
2022-08-30T19:12:16.570Z,24.02
2022-08-30T19:14:47.014Z,23.56
2022-08-30T19:17:17.322Z,23.10
2022-08-30T19:19:50.000Z,21.83
2022-08-30T19:22:26.833Z,21.66
2022-08-30T19:25:01.223Z,23.49
2022-08-30T19:27:37.939Z,24.91
2022-08-30T19:30:18.603Z,25.02
2022-08-30T19:32:52.425Z,21.25
2022-08-30T19:35:23.627Z,20.41
2022-08-30T19:37:54.865Z,20.08
2022-08-30T19:40:25.738Z,19.93
2022-08-30T19:42:56.441Z,19.83
2022-08-30T19:45:27.993Z,19.68
2022-08-30T19:47:59.089Z,19.52
2022-08-30T19:50:29.679Z,19.47
2022-08-30T19:53:00.036Z,19.38
2022-08-30T19:55:31.521Z,19.32
2022-08-30T19:58:02.084Z,19.25
2022-08-30T20:00:33.085Z,19.20
2022-08-30T20:03:06.747Z,19.11
2022-08-30T20:05:38.021Z,18.96
2022-08-30T20:08:08.519Z,18.94
2022-08-30T20:10:39.181Z,18.82
2022-08-30T20:13:09.604Z,18.83
2022-08-30T20:15:40.222Z,18.73
2022-08-30T20:18:13.403Z,18.67
2022-08-30T20:20:49.551Z,18.55
2022-08-30T20:23:23.343Z,18.45
2022-08-30T20:24:31.960Z,24.01
2022-08-30T20:25:57.161Z,18.32
2022-08-30T20:28:27.931Z,18.21
2022-08-30T20:30:59.249Z,18.13
2022-08-30T20:33:29.837Z,18.00
2022-08-30T20:36:04.385Z,17.95
2022-08-30T20:38:35.582Z,17.88
2022-08-30T20:41:13.153Z,17.80
2022-08-30T20:43:44.173Z,17.73
2022-08-30T20:46:21.804Z,17.64
2022-08-30T20:48:52.269Z,17.55
2022-08-30T20:51:28.693Z,17.49
2022-08-30T20:53:58.843Z,17.39
2022-08-30T20:56:30.798Z,17.26
2022-08-30T20:59:03.628Z,17.10
2022-08-30T21:01:39.670Z,17.05
2022-08-30T21:04:11.934Z,16.92
2022-08-30T21:06:42.535Z,16.85
2022-08-30T21:09:13.088Z,16.76
2022-08-30T21:11:44.958Z,16.71
2022-08-30T21:14:15.691Z,16.65
2022-08-30T21:16:46.431Z,16.58
2022-08-30T21:19:17.040Z,16.55
2022-08-30T21:21:47.755Z,16.52
2022-08-30T21:24:18.204Z,16.40
2022-08-30T21:26:49.257Z,16.34
2022-08-30T21:29:19.716Z,16.34
2022-08-30T21:31:49.629Z,16.35
2022-08-30T21:34:20.058Z,16.24
2022-08-30T21:36:50.833Z,16.21
2022-08-30T21:39:29.527Z,16.11
2022-08-30T21:42:00.937Z,16.13
2022-08-30T21:44:31.262Z,16.07
2022-08-30T21:47:01.186Z,15.93
2022-08-30T21:49:31.550Z,15.89
2022-08-30T21:52:02.256Z,15.94
2022-08-30T21:54:33.387Z,15.90
2022-08-30T21:57:09.055Z,15.89
2022-08-30T21:59:39.880Z,15.90
2022-08-30T22:02:10.580Z,15.96
2022-08-30T22:04:42.596Z,15.96
2022-08-30T22:07:13.167Z,15.91
2022-08-30T22:09:45.293Z,15.76
2022-08-30T22:12:16.217Z,15.62
2022-08-30T22:14:46.699Z,15.59
2022-08-30T22:17:17.009Z,15.55
2022-08-30T22:19:47.946Z,15.63
2022-08-30T22:22:18.357Z,15.62
2022-08-30T22:24:48.271Z,15.59
2022-08-30T22:27:19.077Z,15.56
2022-08-30T22:29:49.551Z,15.50
2022-08-30T22:32:20.197Z,15.48
2022-08-30T22:34:51.384Z,15.45
2022-08-30T22:37:21.937Z,15.17
2022-08-30T22:39:53.333Z,14.97
2022-08-30T22:42:23.820Z,14.83
2022-08-30T22:44:54.384Z,14.87
2022-08-30T22:47:24.842Z,14.81
2022-08-30T22:49:54.724Z,14.78
2022-08-30T22:52:25.517Z,14.77
2022-08-30T22:54:56.157Z,14.78
2022-08-30T22:57:26.026Z,14.77
2022-08-30T22:59:56.564Z,14.77
2022-08-30T23:02:27.014Z,14.70
2022-08-30T23:04:56.874Z,14.61
2022-08-30T23:07:27.283Z,14.61
2022-08-30T23:09:59.310Z,14.56
2022-08-30T23:12:30.343Z,14.54
2022-08-30T23:15:01.207Z,14.64
2022-08-30T23:17:31.902Z,14.60
2022-08-30T23:20:10.913Z,14.66
2022-08-30T23:22:41.328Z,14.61
2022-08-30T23:25:31.955Z,14.56
2022-08-30T23:28:24.209Z,14.50
2022-08-30T23:31:13.089Z,14.50
2022-08-30T23:34:01.552Z,14.46
2022-08-30T23:36:50.242Z,14.47
2022-08-30T23:39:39.035Z,14.43
2022-08-30T23:42:28.045Z,14.46
2022-08-30T23:45:17.244Z,14.47
2022-08-30T23:48:06.065Z,14.43
2022-08-30T23:50:54.952Z,14.41
2022-08-30T23:53:44.035Z,14.43
2022-08-30T23:56:32.590Z,14.30
2022-08-30T23:59:21.416Z,14.27
